sensor_id;sensor_type;location;lat;lon;timestamp;pressure;altitude;pressure_sealevel;temperature;humidity
64362;BME280;50685;53.346;-6.296;2023-07-31T00:24:26;100050.09;;;16.85;100.00
64362;BME280;50685;53.346;-6.296;2023-07-31T00:39:31;99980.31;;;16.53;100.00
64362;BME280;50685;53.346;-6.296;2023-07-31T00:42:18;100028.09;;;16.78;100.00
64362;BME280;50685;53.346;-6.296;2023-07-31T00:45:20;99971.00;;;16.43;100.00
64362;BME280;50685;53.346;-6.296;2023-07-31T00:48:35;99991.72;;;16.57;100.00
64362;BME280;50685;53.346;-6.296;2023-07-31T00:55:32;100025.03;;;16.68;100.00
64362;BME280;50685;53.346;-6.296;2023-07-31T00:58:20;100024.63;;;16.76;100.00
64362;BME280;50685;53.346;-6.296;2023-07-31T01:01:03;99973.84;;;16.40;100.00
64362;BME280;50685;53.346;-6.296;2023-07-31T01:03:54;99969.22;;;16.43;100.00
64362;BME280;50685;53.346;-6.296;2023-07-31T01:15:56;100001.38;;;16.42;100.00
64362;BME280;50685;53.346;-6.296;2023-07-31T01:18:50;99992.28;;;16.46;100.00
64362;BME280;50685;53.346;-6.296;2023-07-31T01:33:41;99966.50;;;16.26;100.00
64362;BME280;50685;53.346;-6.296;2023-07-31T01:36:42;99963.28;;;16.19;100.00
64362;BME280;50685;53.346;-6.296;2023-07-31T01:39:46;99981.63;;;16.27;100.00
64362;BME280;50685;53.346;-6.296;2023-07-31T01:42:11;99966.56;;;16.24;100.00
64362;BME280;50685;53.346;-6.296;2023-07-31T01:52:05;100026.28;;;16.44;100.00
64362;BME280;50685;53.346;-6.296;2023-07-31T01:55:17;100014.84;;;16.40;100.00
64362;BME280;50685;53.346;-6.296;2023-07-31T02:04:30;99991.03;;;16.16;100.00
64362;BME280;50685;53.346;-6.296;2023-07-31T02:22:05;99983.38;;;16.09;100.00
64362;BME280;50685;53.346;-6.296;2023-07-31T02:24:46;100030.34;;;16.33;100.00
64362;BME280;50685;53.346;-6.296;2023-07-31T02:27:32;99972.13;;;16.02;100.00
64362;BME280;50685;53.346;-6.296;2023-07-31T02:33:36;100020.50;;;16.34;100.00
64362;BME280;50685;53.346;-6.296;2023-07-31T02:45:42;100027.78;;;16.49;100.00
64362;BME280;50685;53.346;-6.296;2023-07-31T02:48:14;99992.94;;;16.32;100.00
64362;BME280;50685;53.346;-6.296;2023-07-31T02:51:22;99964.28;;;16.16;100.00
64362;BME280;50685;53.346;-6.296;2023-07-31T02:54:35;99973.09;;;16.18;100.00
64362;BME280;50685;53.346;-6.296;2023-07-31T02:57:24;99947.34;;;16.16;100.00
64362;BME280;50685;53.346;-6.296;2023-07-31T02:59:58;100018.78;;;16.50;100.00
64362;BME280;50685;53.346;-6.296;2023-07-31T03:02:36;99956.19;;;16.18;100.00
64362;BME280;50685;53.346;-6.296;2023-07-31T03:05:43;99946.94;;;16.06;100.00
64362;BME280;50685;53.346;-6.296;2023-07-31T03:09:04;99946.22;;;16.02;100.00
64362;BME280;50685;53.346;-6.296;2023-07-31T03:11:53;100003.72;;;16.30;100.00
64362;BME280;50685;53.346;-6.296;2023-07-31T03:14:50;99967.50;;;16.05;100.00
64362;BME280;50685;53.346;-6.296;2023-07-31T03:17:39;100017.28;;;16.27;100.00
64362;BME280;50685;53.346;-6.296;2023-07-31T03:20:07;99947.41;;;15.97;100.00
64362;BME280;50685;53.346;-6.296;2023-07-31T03:23:24;99941.34;;;15.93;100.00
64362;BME280;50685;53.346;-6.296;2023-07-31T03:26:26;100005.59;;;16.28;100.00
64362;BME280;50685;53.346;-6.296;2023-07-31T03:38:02;99991.88;;;16.36;100.00
64362;BME280;50685;53.346;-6.296;2023-07-31T03:40:42;99994.38;;;16.39;100.00
64362;BME280;50685;53.346;-6.296;2023-07-31T03:43:33;99991.06;;;16.34;100.00
64362;BME280;50685;53.346;-6.296;2023-07-31T03:46:16;99943.66;;;16.18;100.00
64362;BME280;50685;53.346;-6.296;2023-07-31T03:52:28;99965.88;;;16.38;100.00
64362;BME280;50685;53.346;-6.296;2023-07-31T04:01:48;99922.09;;;16.04;100.00
64362;BME280;50685;53.346;-6.296;2023-07-31T04:04:44;99984.38;;;16.43;100.00
64362;BME280;50685;53.346;-6.296;2023-07-31T04:07:23;99954.31;;;16.20;100.00
64362;BME280;50685;53.346;-6.296;2023-07-31T04:15:14;99998.78;;;16.40;100.00
64362;BME280;50685;53.346;-6.296;2023-07-31T04:18:08;99996.25;;;16.37;100.00
64362;BME280;50685;53.346;-6.296;2023-07-31T04:21:04;99973.09;;;16.18;100.00
64362;BME280;50685;53.346;-6.296;2023-07-31T04:27:00;100004.53;;;16.32;100.00
64362;BME280;50685;53.346;-6.296;2023-07-31T04:33:36;99945.69;;;15.96;100.00
64362;BME280;50685;53.346;-6.296;2023-07-31T04:39:41;99938.97;;;15.87;100.00
64362;BME280;50685;53.346;-6.296;2023-07-31T04:43:07;99985.13;;;16.10;100.00
64362;BME280;50685;53.346;-6.296;2023-07-31T04:50:55;99950.94;;;15.97;100.00
64362;BME280;50685;53.346;-6.296;2023-07-31T04:54:09;99963.28;;;16.19;100.00
64362;BME280;50685;53.346;-6.296;2023-07-31T04:56:45;99947.97;;;16.03;100.00
64362;BME280;50685;53.346;-6.296;2023-07-31T04:59:13;99973.09;;;16.18;100.00
64362;BME280;50685;53.346;-6.296;2023-07-31T05:01:57;99981.78;;;16.24;100.00
64362;BME280;50685;53.346;-6.296;2023-07-31T05:10:43;100012.69;;;16.29;100.00
64362;BME280;50685;53.346;-6.296;2023-07-31T05:13:41;99963.81;;;15.89;100.00
64362;BME280;50685;53.346;-6.296;2023-07-31T05:16:42;99987.31;;;16.01;100.00
64362;BME280;50685;53.346;-6.296;2023-07-31T05:19:49;99953.28;;;15.86;100.00
64362;BME280;50685;53.346;-6.296;2023-07-31T05:23:05;100008.66;;;16.20;100.00
64362;BME280;50685;53.346;-6.296;2023-07-31T05:25:33;99953.13;;;15.89;100.00
64362;BME280;50685;53.346;-6.296;2023-07-31T05:28:23;99968.53;;;15.84;100.00
64362;BME280;50685;53.346;-6.296;2023-07-31T05:31:09;100009.69;;;16.18;100.00
64362;BME280;50685;53.346;-6.296;2023-07-31T05:34:39;99959.47;;;15.86;100.00
64362;BME280;50685;53.346;-6.296;2023-07-31T05:40:53;99935.13;;;15.73;100.00
64362;BME280;50685;53.346;-6.296;2023-07-31T05:43:49;99953.03;;;15.71;100.00
64362;BME280;50685;53.346;-6.296;2023-07-31T05:47:03;99949.84;;;15.63;100.00
64362;BME280;50685;53.346;-6.296;2023-07-31T05:53:30;99946.13;;;15.67;100.00
64362;BME280;50685;53.346;-6.296;2023-07-31T05:56:02;100006.56;;;15.90;100.00
64362;BME280;50685;53.346;-6.296;2023-07-31T06:01:36;100003.16;;;15.87;100.00
64362;BME280;50685;53.346;-6.296;2023-07-31T06:04:31;99954.28;;;15.45;100.00
64362;BME280;50685;53.346;-6.296;2023-07-31T06:07:02;99962.88;;;15.52;100.00
64362;BME280;50685;53.346;-6.296;2023-07-31T06:15:54;99965.75;;;15.47;100.00
64362;BME280;50685;53.346;-6.296;2023-07-31T06:18:45;99906.00;;;15.10;100.00
64362;BME280;50685;53.346;-6.296;2023-07-31T06:21:36;99919.09;;;15.16;100.00
64362;BME280;50685;53.346;-6.296;2023-07-31T06:24:56;99978.78;;;15.55;100.00
64362;BME280;50685;53.346;-6.296;2023-07-31T06:28:05;99947.84;;;15.49;100.00
64362;BME280;50685;53.346;-6.296;2023-07-31T06:34:12;99946.41;;;15.61;100.00
64362;BME280;50685;53.346;-6.296;2023-07-31T06:43:21;99965.69;;;15.68;100.00
64362;BME280;50685;53.346;-6.296;2023-07-31T06:49:02;99954.44;;;15.61;100.00
64362;BME280;50685;53.346;-6.296;2023-07-31T06:52:16;99947.03;;;15.47;100.00
64362;BME280;50685;53.346;-6.296;2023-07-31T06:58:20;100008.59;;;15.85;100.00
64362;BME280;50685;53.346;-6.296;2023-07-31T07:15:53;99936.19;;;15.69;100.00
64362;BME280;50685;53.346;-6.296;2023-07-31T07:18:41;99959.44;;;15.88;100.00
64362;BME280;50685;53.346;-6.296;2023-07-31T07:21:16;99950.75;;;15.83;100.00
64362;BME280;50685;53.346;-6.296;2023-07-31T07:27:39;99937.81;;;15.73;100.00
64362;BME280;50685;53.346;-6.296;2023-07-31T07:30:29;99973.13;;;15.99;100.00
64362;BME280;50685;53.346;-6.296;2023-07-31T07:33:32;99974.09;;;15.98;99.67
64362;BME280;50685;53.346;-6.296;2023-07-31T07:36:19;99959.44;;;15.88;100.00
64362;BME280;50685;53.346;-6.296;2023-07-31T07:39:44;99970.75;;;15.93;100.00
64362;BME280;50685;53.346;-6.296;2023-07-31T07:42:46;99962.88;;;15.90;100.00
64362;BME280;50685;53.346;-6.296;2023-07-31T07:48:28;99901.13;;;15.39;100.00
64362;BME280;50685;53.346;-6.296;2023-07-31T07:51:14;99947.69;;;15.71;100.00
64362;BME280;50685;53.346;-6.296;2023-07-31T07:54:12;99893.97;;;15.39;100.00
64362;BME280;50685;53.346;-6.296;2023-07-31T07:56:56;99883.56;;;15.33;100.00
64362;BME280;50685;53.346;-6.296;2023-07-31T08:21:36;99933.47;;;15.52;100.00
64362;BME280;50685;53.346;-6.296;2023-07-31T08:24:04;99968.88;;;15.76;100.00
64362;BME280;50685;53.346;-6.296;2023-07-31T08:26:51;99959.56;;;15.66;100.00
64362;BME280;50685;53.346;-6.296;2023-07-31T08:47:35;99946.56;;;15.39;99.68
64362;BME280;50685;53.346;-6.296;2023-07-31T08:50:39;99947.56;;;15.36;98.39
64362;BME280;50685;53.346;-6.296;2023-07-31T08:57:02;99975.31;;;15.91;98.55
64362;BME280;50685;53.346;-6.296;2023-07-31T08:59:43;99911.75;;;15.60;97.91
64362;BME280;50685;53.346;-6.296;2023-07-31T09:14:53;99955.06;;;16.04;96.94
64362;BME280;50685;53.346;-6.296;2023-07-31T09:17:48;99925.31;;;15.93;97.41
64362;BME280;50685;53.346;-6.296;2023-07-31T09:21:28;99913.25;;;15.65;96.20
64362;BME280;50685;53.346;-6.296;2023-07-31T09:28:14;99933.91;;;15.81;96.02
64362;BME280;50685;53.346;-6.296;2023-07-31T09:30:54;99985.56;;;16.00;96.42
64362;BME280;50685;53.346;-6.296;2023-07-31T09:33:22;99987.31;;;16.01;96.79
64362;BME280;50685;53.346;-6.296;2023-07-31T09:36:20;99999.88;;;15.99;97.96
64362;BME280;50685;53.346;-6.296;2023-07-31T09:46:41;100006.09;;;15.81;98.37
64362;BME280;50685;53.346;-6.296;2023-07-31T09:56:49;99961.94;;;15.53;98.33
64362;BME280;50685;53.346;-6.296;2023-07-31T10:03:15;99993.53;;;15.83;98.79
64362;BME280;50685;53.346;-6.296;2023-07-31T10:06:24;99952.34;;;15.49;98.34
64362;BME280;50685;53.346;-6.296;2023-07-31T10:29:00;99954.50;;;15.60;100.00
64362;BME280;50685;53.346;-6.296;2023-07-31T10:41:11;99947.25;;;15.23;100.00
64362;BME280;50685;53.346;-6.296;2023-07-31T10:43:57;99974.94;;;15.41;100.00
64362;BME280;50685;53.346;-6.296;2023-07-31T10:46:34;99943.66;;;15.24;100.00
64362;BME280;50685;53.346;-6.296;2023-07-31T10:49:20;99986.91;;;15.52;100.00
64362;BME280;50685;53.346;-6.296;2023-07-31T10:57:27;99919.97;;;15.36;100.00
64362;BME280;50685;53.346;-6.296;2023-07-31T11:00:28;99970.59;;;15.77;100.00
64362;BME280;50685;53.346;-6.296;2023-07-31T11:06:28;99960.84;;;15.95;100.00
64362;BME280;50685;53.346;-6.296;2023-07-31T11:09:17;99907.81;;;15.67;100.00
64362;BME280;50685;53.346;-6.296;2023-07-31T11:17:43;99910.59;;;15.84;100.00
64362;BME280;50685;53.346;-6.296;2023-07-31T11:20:36;99905.66;;;15.94;99.94
64362;BME280;50685;53.346;-6.296;2023-07-31T11:23:16;99897.47;;;15.97;99.23
64362;BME280;50685;53.346;-6.296;2023-07-31T11:25:57;99903.44;;;16.02;98.38
64362;BME280;50685;53.346;-6.296;2023-07-31T11:28:53;99909.13;;;16.14;99.31
64362;BME280;50685;53.346;-6.296;2023-07-31T11:31:19;99946.44;;;16.34;99.10
64362;BME280;50685;53.346;-6.296;2023-07-31T11:34:15;99962.47;;;16.34;98.94
64362;BME280;50685;53.346;-6.296;2023-07-31T11:37:23;99961.72;;;16.32;99.06
64362;BME280;50685;53.346;-6.296;2023-07-31T11:40:03;99901.78;;;16.00;98.62
64362;BME280;50685;53.346;-6.296;2023-07-31T11:42:52;99898.75;;;16.08;99.08
64362;BME280;50685;53.346;-6.296;2023-07-31T11:51:50;99891.03;;;16.36;99.80
64362;BME280;50685;53.346;-6.296;2023-07-31T11:54:21;99885.84;;;16.51;98.89
64362;BME280;50685;53.346;-6.296;2023-07-31T11:57:12;99892.09;;;16.67;97.44
64362;BME280;50685;53.346;-6.296;2023-07-31T11:59:43;99924.22;;;16.85;94.98
64362;BME280;50685;53.346;-6.296;2023-07-31T12:05:50;99942.50;;;16.94;94.51
64362;BME280;50685;53.346;-6.296;2023-07-31T12:08:52;99894.75;;;17.02;93.34
64362;BME280;50685;53.346;-6.296;2023-07-31T12:11:30;99942.59;;;17.42;93.09
64362;BME280;50685;53.346;-6.296;2023-07-31T12:27:56;99857.13;;;18.00;83.50
64362;BME280;50685;53.346;-6.296;2023-07-31T12:41:11;99822.84;;;18.65;80.76
64362;BME280;50685;53.346;-6.296;2023-07-31T12:47:49;99862.22;;;19.78;77.63
64362;BME280;50685;53.346;-6.296;2023-07-31T13:25:58;99815.41;;;20.21;70.66
64362;BME280;50685;53.346;-6.296;2023-07-31T13:32:06;99815.84;;;20.28;71.19
64362;BME280;50685;53.346;-6.296;2023-07-31T13:35:01;99775.69;;;20.25;70.70
64362;BME280;50685;53.346;-6.296;2023-07-31T13:47:28;99770.81;;;20.55;66.71
64362;BME280;50685;53.346;-6.296;2023-07-31T13:49:56;99822.88;;;20.69;68.10
64362;BME280;50685;53.346;-6.296;2023-07-31T13:52:54;99813.94;;;20.43;68.96
64362;BME280;50685;53.346;-6.296;2023-07-31T13:55:42;99768.31;;;19.88;71.85
64362;BME280;50685;53.346;-6.296;2023-07-31T14:08:14;99777.34;;;17.88;82.00
64362;BME280;50685;53.346;-6.296;2023-07-31T14:10:48;99751.72;;;17.82;83.75
64362;BME280;50685;53.346;-6.296;2023-07-31T14:24:01;99764.31;;;18.84;76.82
64362;BME280;50685;53.346;-6.296;2023-07-31T14:26:56;99757.66;;;19.19;74.43
64362;BME280;50685;53.346;-6.296;2023-07-31T14:29:27;99781.59;;;19.36;73.64
64362;BME280;50685;53.346;-6.296;2023-07-31T14:32:25;99753.50;;;19.40;73.67
64362;BME280;50685;53.346;-6.296;2023-07-31T14:35:09;99811.75;;;19.82;73.93
64362;BME280;50685;53.346;-6.296;2023-07-31T14:41:25;99826.91;;;19.97;73.90
64362;BME280;50685;53.346;-6.296;2023-07-31T14:43:59;99757.16;;;19.67;72.91
64362;BME280;50685;53.346;-6.296;2023-07-31T14:46:36;99819.03;;;19.94;73.60
64362;BME280;50685;53.346;-6.296;2023-07-31T14:49:30;99821.28;;;19.87;74.96
64362;BME280;50685;53.346;-6.296;2023-07-31T15:02:11;99789.03;;;19.73;73.36
64362;BME280;50685;53.346;-6.296;2023-07-31T15:04:45;99802.44;;;19.60;73.46
64362;BME280;50685;53.346;-6.296;2023-07-31T15:10:30;99791.34;;;19.52;70.42
64362;BME280;50685;53.346;-6.296;2023-07-31T15:13:16;99776.59;;;19.30;69.53
64362;BME280;50685;53.346;-6.296;2023-07-31T15:15:47;99810.44;;;19.74;69.53
64362;BME280;50685;53.346;-6.296;2023-07-31T15:18:41;99772.16;;;19.43;69.42
64362;BME280;50685;53.346;-6.296;2023-07-31T15:21:35;99773.59;;;19.49;69.34
64362;BME280;50685;53.346;-6.296;2023-07-31T15:28:04;99768.13;;;19.36;70.75
64362;BME280;50685;53.346;-6.296;2023-07-31T15:31:09;99798.41;;;19.25;73.78
64362;BME280;50685;53.346;-6.296;2023-07-31T16:24:57;99807.34;;;17.64;93.13
64362;BME280;50685;53.346;-6.296;2023-07-31T16:27:53;99756.53;;;17.30;91.67
64362;BME280;50685;53.346;-6.296;2023-07-31T16:33:42;99764.97;;;17.55;89.08
64362;BME280;50685;53.346;-6.296;2023-07-31T16:40:20;99747.53;;;17.78;86.97
64362;BME280;50685;53.346;-6.296;2023-07-31T16:42:58;99729.69;;;17.77;84.81
64362;BME280;50685;53.346;-6.296;2023-07-31T16:45:50;99727.94;;;17.61;84.22
64362;BME280;50685;53.346;-6.296;2023-07-31T16:51:50;99742.94;;;17.80;84.43
64362;BME280;50685;53.346;-6.296;2023-07-31T17:01:28;99785.06;;;17.78;85.15
64362;BME280;50685;53.346;-6.296;2023-07-31T17:05:01;99749.69;;;17.41;87.05
64362;BME280;50685;53.346;-6.296;2023-07-31T17:07:53;99795.41;;;17.54;88.08
64362;BME280;50685;53.346;-6.296;2023-07-31T17:14:20;99790.38;;;17.63;89.77
64362;BME280;50685;53.346;-6.296;2023-07-31T17:20:25;99728.94;;;17.44;86.96
64362;BME280;50685;53.346;-6.296;2023-07-31T17:26:48;99787.34;;;17.70;87.09
64362;BME280;50685;53.346;-6.296;2023-07-31T17:36:42;99738.81;;;16.80;89.11
64362;BME280;50685;53.346;-6.296;2023-07-31T17:39:47;99717.03;;;16.70;87.93
64362;BME280;50685;53.346;-6.296;2023-07-31T17:49:32;99764.59;;;16.98;88.39
64362;BME280;50685;53.346;-6.296;2023-07-31T17:58:43;99779.56;;;17.02;88.40
64362;BME280;50685;53.346;-6.296;2023-07-31T18:05:19;99720.75;;;16.51;89.11
64362;BME280;50685;53.346;-6.296;2023-07-31T18:08:07;99775.31;;;16.98;89.09
64362;BME280;50685;53.346;-6.296;2023-07-31T18:14:04;99729.94;;;16.79;87.92
64362;BME280;50685;53.346;-6.296;2023-07-31T18:17:00;99727.94;;;16.83;86.96
64362;BME280;50685;53.346;-6.296;2023-07-31T18:19:49;99794.06;;;17.30;86.18
64362;BME280;50685;53.346;-6.296;2023-07-31T18:22:26;99725.19;;;17.00;85.41
64362;BME280;50685;53.346;-6.296;2023-07-31T18:25:01;99781.28;;;17.36;85.65
64362;BME280;50685;53.346;-6.296;2023-07-31T18:42:51;99734.53;;;16.93;84.44
64362;BME280;50685;53.346;-6.296;2023-07-31T18:45:22;99812.06;;;17.28;84.92
64362;BME280;50685;53.346;-6.296;2023-07-31T18:54:23;99727.59;;;16.89;85.92
64362;BME280;50685;53.346;-6.296;2023-07-31T19:00:43;99814.91;;;17.25;86.52
64362;BME280;50685;53.346;-6.296;2023-07-31T19:06:04;99813.94;;;17.26;86.73
64362;BME280;50685;53.346;-6.296;2023-07-31T19:09:10;99830.28;;;17.22;86.66
64362;BME280;50685;53.346;-6.296;2023-07-31T19:28:23;99814.78;;;16.61;88.40
64362;BME280;50685;53.346;-6.296;2023-07-31T19:38:49;99783.06;;;16.37;88.57
64362;BME280;50685;53.346;-6.296;2023-07-31T19:41:18;99839.16;;;16.73;88.61
64362;BME280;50685;53.346;-6.296;2023-07-31T19:44:04;99845.41;;;16.73;88.38
64362;BME280;50685;53.346;-6.296;2023-07-31T19:46:54;99828.84;;;16.49;88.12
64362;BME280;50685;53.346;-6.296;2023-07-31T19:49:58;99789.66;;;16.30;87.95
64362;BME280;50685;53.346;-6.296;2023-07-31T19:53:06;99810.22;;;16.30;88.12
64362;BME280;50685;53.346;-6.296;2023-07-31T19:56:07;99792.06;;;16.19;88.12
64362;BME280;50685;53.346;-6.296;2023-07-31T19:58:39;99836.94;;;16.47;88.14
64362;BME280;50685;53.346;-6.296;2023-07-31T20:04:10;99782.47;;;15.97;87.34
64362;BME280;50685;53.346;-6.296;2023-07-31T20:06:49;99806.84;;;16.09;88.06
64362;BME280;50685;53.346;-6.296;2023-07-31T20:10:01;99827.78;;;16.18;88.36
64362;BME280;50685;53.346;-6.296;2023-07-31T20:12:51;99781.56;;;15.79;88.83
64362;BME280;50685;53.346;-6.296;2023-07-31T20:16:21;99843.19;;;16.13;89.19
64362;BME280;50685;53.346;-6.296;2023-07-31T20:19:01;99788.50;;;15.66;89.30
64362;BME280;50685;53.346;-6.296;2023-07-31T20:21:34;99825.56;;;15.91;89.68
64362;BME280;50685;53.346;-6.296;2023-07-31T20:27:01;99786.34;;;15.55;89.69
64362;BME280;50685;53.346;-6.296;2023-07-31T20:29:35;99814.19;;;15.68;89.55
64362;BME280;50685;53.346;-6.296;2023-07-31T20:35:16;99791.34;;;15.43;90.27
64362;BME280;50685;53.346;-6.296;2023-07-31T20:38:15;99806.69;;;15.40;90.65
64362;BME280;50685;53.346;-6.296;2023-07-31T20:41:17;99866.56;;;15.72;91.35
64362;BME280;50685;53.346;-6.296;2023-07-31T20:44:29;99812.59;;;15.27;91.47
64362;BME280;50685;53.346;-6.296;2023-07-31T20:47:18;99806.47;;;15.25;90.64
64362;BME280;50685;53.346;-6.296;2023-07-31T20:49:46;99801.06;;;15.27;91.33
64362;BME280;50685;53.346;-6.296;2023-07-31T20:52:21;99841.34;;;15.41;90.39
64362;BME280;50685;53.346;-6.296;2023-07-31T20:54:56;99878.34;;;15.68;90.79
64362;BME280;50685;53.346;-6.296;2023-07-31T20:57:34;99848.88;;;15.51;90.77
64362;BME280;50685;53.346;-6.296;2023-07-31T21:00:06;99833.91;;;15.29;90.61
64362;BME280;50685;53.346;-6.296;2023-07-31T21:02:32;99836.38;;;15.34;91.20
64362;BME280;50685;53.346;-6.296;2023-07-31T21:05:00;99889.47;;;15.59;92.04
64362;BME280;50685;53.346;-6.296;2023-07-31T21:07:27;99902.03;;;15.57;91.93
64362;BME280;50685;53.346;-6.296;2023-07-31T21:09:52;99893.25;;;15.55;92.57
64362;BME280;50685;53.346;-6.296;2023-07-31T21:12:18;99897.06;;;15.49;93.21
64362;BME280;50685;53.346;-6.296;2023-07-31T21:15:00;99899.09;;;15.44;93.80
64362;BME280;50685;53.346;-6.296;2023-07-31T21:17:36;99852.03;;;15.03;94.81
64362;BME280;50685;53.346;-6.296;2023-07-31T21:20:03;99889.22;;;15.27;95.39
64362;BME280;50685;53.346;-6.296;2023-07-31T21:22:29;99853.97;;;15.00;95.65
64362;BME280;50685;53.346;-6.296;2023-07-31T21:25:04;99840.81;;;14.76;95.73
64362;BME280;50685;53.346;-6.296;2023-07-31T21:27:55;99843.63;;;14.73;95.82
64362;BME280;50685;53.346;-6.296;2023-07-31T21:30:41;99888.69;;;15.00;96.12
64362;BME280;50685;53.346;-6.296;2023-07-31T21:33:28;99908.03;;;15.05;96.11
64362;BME280;50685;53.346;-6.296;2023-07-31T21:40:07;99911.91;;;14.98;96.00
64362;BME280;50685;53.346;-6.296;2023-07-31T21:42:36;99846.28;;;14.52;96.55
64362;BME280;50685;53.346;-6.296;2023-07-31T21:48:15;99869.97;;;14.60;97.20
64362;BME280;50685;53.346;-6.296;2023-07-31T21:50:42;99856.63;;;14.60;97.21
64362;BME280;50685;53.346;-6.296;2023-07-31T21:53:19;99849.38;;;14.43;97.66
64362;BME280;50685;53.346;-6.296;2023-07-31T21:55:45;99847.44;;;14.46;97.45
64362;BME280;50685;53.346;-6.296;2023-07-31T21:58:14;99896.00;;;14.75;98.19
64362;BME280;50685;53.346;-6.296;2023-07-31T22:00:39;99895.19;;;14.73;98.39
64362;BME280;50685;53.346;-6.296;2023-07-31T22:03:11;99822.44;;;14.28;98.51
64362;BME280;50685;53.346;-6.296;2023-07-31T22:05:36;99865.41;;;14.43;98.97
64362;BME280;50685;53.346;-6.296;2023-07-31T22:08:17;99878.31;;;14.52;99.01
64362;BME280;50685;53.346;-6.296;2023-07-31T22:10:45;99905.38;;;14.65;99.41
64362;BME280;50685;53.346;-6.296;2023-07-31T22:13:11;99912.47;;;14.65;99.58
64362;BME280;50685;53.346;-6.296;2023-07-31T22:18:47;99887.47;;;14.46;99.16
64362;BME280;50685;53.346;-6.296;2023-07-31T22:21:53;99918.00;;;14.60;98.97
64362;BME280;50685;53.346;-6.296;2023-07-31T22:24:30;99906.63;;;14.56;99.13
64362;BME280;50685;53.346;-6.296;2023-07-31T22:27:02;99914.63;;;14.56;98.69
64362;BME280;50685;53.346;-6.296;2023-07-31T22:29:30;99891.88;;;14.27;98.39
64362;BME280;50685;53.346;-6.296;2023-07-31T22:31:56;99850.91;;;14.07;97.95
64362;BME280;50685;53.346;-6.296;2023-07-31T22:37:33;99881.66;;;14.16;97.45
64362;BME280;50685;53.346;-6.296;2023-07-31T22:39:59;99921.34;;;14.44;97.38
64362;BME280;50685;53.346;-6.296;2023-07-31T22:45:26;99946.47;;;14.39;97.05
64362;BME280;50685;53.346;-6.296;2023-07-31T22:51:01;99849.22;;;13.84;97.21
64362;BME280;50685;53.346;-6.296;2023-07-31T22:53:26;99911.28;;;14.30;98.16
64362;BME280;50685;53.346;-6.296;2023-07-31T22:56:02;99937.06;;;14.30;98.58
64362;BME280;50685;53.346;-6.296;2023-07-31T22:58:35;99932.66;;;14.29;98.88
64362;BME280;50685;53.346;-6.296;2023-07-31T23:01:13;99941.59;;;14.28;99.35
64362;BME280;50685;53.346;-6.296;2023-07-31T23:03:48;99923.50;;;14.14;99.78
64362;BME280;50685;53.346;-6.296;2023-07-31T23:06:17;99945.41;;;14.22;100.00
64362;BME280;50685;53.346;-6.296;2023-07-31T23:08:52;99928.84;;;14.14;100.00
64362;BME280;50685;53.346;-6.296;2023-07-31T23:11:27;99861.91;;;13.77;100.00
64362;BME280;50685;53.346;-6.296;2023-07-31T23:14:14;99883.91;;;13.82;100.00
64362;BME280;50685;53.346;-6.296;2023-07-31T23:17:11;99941.16;;;14.17;100.00
64362;BME280;50685;53.346;-6.296;2023-07-31T23:19:56;99937.72;;;14.14;100.00
64362;BME280;50685;53.346;-6.296;2023-07-31T23:22:34;99891.69;;;13.89;100.00
64362;BME280;50685;53.346;-6.296;2023-07-31T23:25:24;99930.69;;;14.12;100.00
64362;BME280;50685;53.346;-6.296;2023-07-31T23:28:10;99912.53;;;14.00;100.00
64362;BME280;50685;53.346;-6.296;2023-07-31T23:31:00;99873.72;;;13.72;100.00
64362;BME280;50685;53.346;-6.296;2023-07-31T23:33:26;99933.44;;;14.10;100.00
64362;BME280;50685;53.346;-6.296;2023-07-31T23:35:59;99935.16;;;14.11;100.00
64362;BME280;50685;53.346;-6.296;2023-07-31T23:38:42;99931.69;;;14.09;100.00
64362;BME280;50685;53.346;-6.296;2023-07-31T23:41:11;99936.66;;;13.96;100.00
64362;BME280;50685;53.346;-6.296;2023-07-31T23:43:36;99894.03;;;13.74;100.00
64362;BME280;50685;53.346;-6.296;2023-07-31T23:46:02;99949.00;;;13.99;100.00
64362;BME280;50685;53.346;-6.296;2023-07-31T23:48:42;99949.84;;;14.00;100.00
64362;BME280;50685;53.346;-6.296;2023-07-31T23:51:10;99944.75;;;13.95;100.00
64362;BME280;50685;53.346;-6.296;2023-07-31T23:53:39;99903.19;;;13.67;100.00
64362;BME280;50685;53.346;-6.296;2023-07-31T23:56:13;99943.09;;;13.91;100.00
64362;BME280;50685;53.346;-6.296;2023-07-31T23:59:10;99865.97;;;13.43;100.00
